Crocker, Washington
Current Conditions -  °F | °C
As of 2:58 AM on Friday 24 Oct 2014 (Local Time) from KTCM Reporting Station
Overcast Overcast  
Wind Chill: 48°   Ceiling: 3300
Heat Index: 48°   Visibility: 10mi
Dew Point: 48°   Wind: 3mph
Humidity: 99%   Direction: 130°SE
Pressure: 30.04"   Gusts: NA
Location:  46.993°N, 122.097°W
Report Text: KTCM 240958Z AUTO 13003KT 10SM BKN033 OVC043 09/09 A3004 RMK AO2 SLP177 T00910089 $
Loading
Personal Weather Stations






























Interactive Weather Map
Tropical Storm Tracking
New forecast layout! Learn more

10-Day Weather Forecast

Advertisements
Track Severe Weather on mobile